createdAt,value
2023-02-05T00:00:51.820Z,14.30
2023-02-05T00:03:19.248Z,14.10
2023-02-05T00:05:46.632Z,13.20
2023-02-05T00:08:15.293Z,13.30
2023-02-05T00:10:42.619Z,13.40
2023-02-05T00:13:09.959Z,14.27
2023-02-05T00:15:40.464Z,12.77
2023-02-05T00:18:07.810Z,11.70
2023-02-05T00:20:36.264Z,12.27
2023-02-05T00:23:03.833Z,11.70
2023-02-05T00:25:32.887Z,11.90
2023-02-05T00:28:00.700Z,11.53
2023-02-05T00:30:28.477Z,11.17
2023-02-05T00:32:55.820Z,12.73
2023-02-05T00:35:23.170Z,9.50
2023-02-05T00:37:50.481Z,10.10
2023-02-05T00:40:18.094Z,13.13
2023-02-05T00:42:46.751Z,10.57
2023-02-05T00:45:14.098Z,10.90
2023-02-05T00:47:41.414Z,11.57
2023-02-05T00:50:09.117Z,11.43
2023-02-05T00:52:36.481Z,10.07
2023-02-05T00:55:03.838Z,12.67
2023-02-05T00:57:31.223Z,8.87
2023-02-05T00:59:59.952Z,9.50
2023-02-05T01:02:27.376Z,11.40
2023-02-05T01:04:55.202Z,12.20
2023-02-05T01:07:22.564Z,9.37
2023-02-05T01:09:49.886Z,12.77
2023-02-05T01:12:17.228Z,11.37
2023-02-05T01:14:44.572Z,10.17
2023-02-05T01:17:13.240Z,8.30
2023-02-05T01:19:40.629Z,9.40
2023-02-05T01:22:07.994Z,8.60
2023-02-05T01:24:35.305Z,8.73
2023-02-05T01:27:02.637Z,8.57
2023-02-05T01:29:30.216Z,10.43
2023-02-05T01:31:57.631Z,12.10
2023-02-05T01:34:26.342Z,12.80
2023-02-05T01:36:53.654Z,10.33
2023-02-05T01:39:21.115Z,10.40
2023-02-05T01:41:48.496Z,14.03
2023-02-05T01:44:18.380Z,14.07
2023-02-05T01:46:46.703Z,15.43
2023-02-05T01:49:17.141Z,11.57
2023-02-05T01:51:46.473Z,10.80
2023-02-05T01:54:14.057Z,12.23
2023-02-05T01:56:43.036Z,10.90
2023-02-05T01:59:12.440Z,10.23
2023-02-05T02:01:40.942Z,11.00
2023-02-05T02:04:08.992Z,10.70
2023-02-05T02:06:37.003Z,9.90
2023-02-05T02:09:06.484Z,10.83
2023-02-05T02:11:36.429Z,17.77
2023-02-05T02:14:06.393Z,8.43
2023-02-05T02:16:35.316Z,9.07
2023-02-05T02:19:03.741Z,11.77
2023-02-05T02:21:44.082Z,11.90
2023-02-05T02:24:30.240Z,12.60
2023-02-05T02:27:15.492Z,11.93
2023-02-05T02:29:48.004Z,12.73
2023-02-05T02:32:17.094Z,11.50
2023-02-05T02:34:46.561Z,9.80
2023-02-05T02:37:15.835Z,8.60
2023-02-05T02:39:43.922Z,8.83
2023-02-05T02:42:14.322Z,8.23
2023-02-05T02:44:42.953Z,9.53
2023-02-05T02:47:14.888Z,9.13
2023-02-05T02:49:43.814Z,8.73
2023-02-05T02:52:13.232Z,9.20
2023-02-05T02:54:42.266Z,10.43
2023-02-05T02:57:10.539Z,9.13
2023-02-05T02:59:39.492Z,7.03
2023-02-05T03:02:08.172Z,4.87
2023-02-05T03:04:38.392Z,6.73
2023-02-05T03:07:07.625Z,5.30
2023-02-05T03:09:39.187Z,8.37
2023-02-05T03:12:07.165Z,7.73
2023-02-05T03:14:34.746Z,8.77
2023-02-05T03:17:02.127Z,7.20
2023-02-05T03:19:30.048Z,10.97
2023-02-05T03:22:00.409Z,9.13
2023-02-05T03:24:28.007Z,9.53
2023-02-05T03:26:55.416Z,7.93
2023-02-05T03:29:28.994Z,10.83
2023-02-05T03:32:02.008Z,11.47
2023-02-05T03:34:34.704Z,10.60
2023-02-05T03:37:09.368Z,9.80
2023-02-05T03:39:43.890Z,8.87
2023-02-05T03:42:13.612Z,7.17
2023-02-05T03:44:48.941Z,9.10
2023-02-05T03:47:19.613Z,6.97
2023-02-05T03:49:52.593Z,7.63
2023-02-05T03:52:23.512Z,11.40
2023-02-05T03:54:52.534Z,9.97
2023-02-05T03:57:22.281Z,7.93
2023-02-05T03:59:50.001Z,8.07
2023-02-05T04:02:18.037Z,7.00
2023-02-05T04:04:45.394Z,7.03
2023-02-05T04:07:12.964Z,7.63
2023-02-05T04:09:41.669Z,8.67
2023-02-05T04:12:09.036Z,6.73
2023-02-05T04:14:36.367Z,6.90
2023-02-05T04:17:03.690Z,11.13
2023-02-05T04:19:31.035Z,9.77
2023-02-05T04:21:58.387Z,11.23
2023-02-05T04:24:26.172Z,6.83
2023-02-05T04:26:54.836Z,7.30
2023-02-05T04:29:22.154Z,6.37
2023-02-05T04:31:49.491Z,6.93
2023-02-05T04:34:16.861Z,8.47
2023-02-05T04:36:44.204Z,8.80
2023-02-05T04:39:11.681Z,5.97
2023-02-05T04:41:39.021Z,6.30
2023-02-05T04:44:07.716Z,5.10
2023-02-05T04:46:35.050Z,4.53
2023-02-05T04:49:02.367Z,4.70
2023-02-05T04:51:29.698Z,4.33
2023-02-05T04:53:57.046Z,3.57
2023-02-05T04:56:24.409Z,4.03
2023-02-05T04:58:51.747Z,4.43
2023-02-05T05:01:21.130Z,3.87
2023-02-05T05:03:48.760Z,5.20
2023-02-05T05:06:16.553Z,3.70
2023-02-05T05:08:44.386Z,4.13
2023-02-05T05:11:12.644Z,5.47
2023-02-05T05:13:39.994Z,3.87
2023-02-05T05:16:08.087Z,4.10
2023-02-05T05:18:36.816Z,4.87
2023-02-05T05:21:04.954Z,6.27
2023-02-05T05:23:32.522Z,7.60
2023-02-05T05:25:59.921Z,6.80
2023-02-05T05:28:27.634Z,5.60
2023-02-05T05:30:54.945Z,6.30
2023-02-05T05:33:22.338Z,5.43
2023-02-05T05:35:51.010Z,4.80
2023-02-05T05:38:18.346Z,5.47
2023-02-05T05:41:03.038Z,3.93
2023-02-05T05:43:48.533Z,5.03
2023-02-05T05:46:16.485Z,4.73
2023-02-05T05:48:43.830Z,4.50
2023-02-05T05:51:12.495Z,4.77
2023-02-05T05:53:39.793Z,5.13
2023-02-05T05:56:07.398Z,4.23
2023-02-05T05:58:34.940Z,4.80
2023-02-05T06:01:02.317Z,3.37
2023-02-05T06:03:29.643Z,4.50
2023-02-05T06:05:56.963Z,5.17
2023-02-05T06:08:25.643Z,4.43
2023-02-05T06:10:52.932Z,4.97
2023-02-05T06:13:20.255Z,3.93
2023-02-05T06:15:48.901Z,3.90
2023-02-05T06:18:16.353Z,5.07
2023-02-05T06:20:43.694Z,4.67
2023-02-05T06:23:11.042Z,3.93
2023-02-05T06:25:39.767Z,4.47
2023-02-05T06:28:07.306Z,4.73
2023-02-05T06:30:34.658Z,5.10
2023-02-05T06:33:02.001Z,4.23
2023-02-05T06:35:29.313Z,4.80
2023-02-05T06:37:56.649Z,6.77
2023-02-05T06:40:25.846Z,4.90
2023-02-05T06:42:54.601Z,4.47
2023-02-05T06:45:21.966Z,5.37
2023-02-05T06:47:49.641Z,4.90
2023-02-05T06:50:17.170Z,3.87
2023-02-05T06:52:44.524Z,4.60
2023-02-05T06:55:11.892Z,4.30
2023-02-05T06:57:39.213Z,5.03
2023-02-05T07:00:09.059Z,5.77
2023-02-05T07:02:36.770Z,5.83
2023-02-05T07:05:04.124Z,6.83
2023-02-05T07:07:33.159Z,5.47
2023-02-05T07:10:00.529Z,5.07
2023-02-05T07:12:28.046Z,4.87
2023-02-05T07:14:55.403Z,5.50
2023-02-05T07:17:24.094Z,4.73
2023-02-05T07:19:51.851Z,6.53
2023-02-05T07:22:19.176Z,5.93
2023-02-05T07:24:46.576Z,6.03
2023-02-05T07:27:13.891Z,5.90
2023-02-05T07:29:41.217Z,8.30
2023-02-05T07:32:08.597Z,5.30
2023-02-05T07:34:37.427Z,4.87
2023-02-05T07:37:04.827Z,5.70
2023-02-05T07:39:33.335Z,5.27
2023-02-05T07:42:00.769Z,5.20
2023-02-05T07:44:28.158Z,5.40
2023-02-05T07:46:55.629Z,5.87
2023-02-05T07:49:23.336Z,4.47
2023-02-05T07:51:52.028Z,5.27
2023-02-05T07:54:19.398Z,7.63
2023-02-05T07:56:46.725Z,7.30
2023-02-05T07:59:14.241Z,7.70
2023-02-05T08:01:41.598Z,5.33
2023-02-05T08:04:08.977Z,5.77
2023-02-05T08:06:36.321Z,7.73
2023-02-05T08:09:05.098Z,4.97
2023-02-05T08:11:32.783Z,7.33
2023-02-05T08:14:01.536Z,6.70
2023-02-05T08:16:28.954Z,7.17
2023-02-05T08:18:56.496Z,7.00
2023-02-05T08:21:23.824Z,6.77
2023-02-05T08:23:51.359Z,7.90
2023-02-05T08:26:20.182Z,5.60
2023-02-05T08:28:47.604Z,5.77
2023-02-05T08:31:15.650Z,5.83
2023-02-05T08:33:43.013Z,8.03
2023-02-05T08:36:12.481Z,5.43
2023-02-05T08:38:39.817Z,6.87
2023-02-05T08:41:12.351Z,6.63
2023-02-05T08:43:42.536Z,8.43
2023-02-05T08:46:10.031Z,6.63
2023-02-05T08:48:37.846Z,5.53
2023-02-05T08:51:05.433Z,6.07
2023-02-05T08:53:33.242Z,6.10
2023-02-05T08:56:01.482Z,8.07
2023-02-05T08:58:29.361Z,5.97
2023-02-05T09:01:02.721Z,4.97
2023-02-05T09:03:30.598Z,5.97
2023-02-05T09:05:58.321Z,7.30
2023-02-05T09:08:25.901Z,8.47
2023-02-05T09:10:53.254Z,6.90
2023-02-05T09:13:20.610Z,8.60
2023-02-05T09:15:48.832Z,7.30
2023-02-05T09:18:17.553Z,8.67
2023-02-05T09:20:46.436Z,7.17
2023-02-05T09:23:14.531Z,8.03
2023-02-05T09:25:42.218Z,8.23
2023-02-05T09:28:10.730Z,9.53
2023-02-05T09:30:38.192Z,6.43
2023-02-05T09:33:05.638Z,6.07
2023-02-05T09:35:34.986Z,6.43
2023-02-05T09:38:03.334Z,6.33
2023-02-05T09:40:33.589Z,6.97
2023-02-05T09:43:04.271Z,8.00
2023-02-05T09:45:39.763Z,6.70
2023-02-05T09:48:14.535Z,7.43
2023-02-05T09:50:43.590Z,8.47
2023-02-05T09:53:13.757Z,5.90
2023-02-05T09:55:44.855Z,7.20
2023-02-05T09:58:13.636Z,11.13
2023-02-05T10:00:46.082Z,5.43
2023-02-05T10:03:20.395Z,6.43
2023-02-05T10:05:55.615Z,6.17
2023-02-05T10:08:25.940Z,7.20
2023-02-05T10:10:54.661Z,6.20
2023-02-05T10:13:36.426Z,7.00
2023-02-05T10:16:10.760Z,9.87
2023-02-05T10:18:44.545Z,6.73
2023-02-05T10:21:18.419Z,8.87
2023-02-05T10:23:54.323Z,8.27
2023-02-05T10:26:23.725Z,9.27
2023-02-05T10:28:56.105Z,6.53
2023-02-05T10:31:25.121Z,6.17
2023-02-05T10:33:55.963Z,7.77
2023-02-05T10:36:25.712Z,7.50
2023-02-05T10:38:55.260Z,7.23
2023-02-05T10:41:25.409Z,7.80
2023-02-05T10:43:54.370Z,7.67
2023-02-05T10:46:21.729Z,9.77
2023-02-05T10:48:51.038Z,6.20
2023-02-05T10:51:20.666Z,8.20
2023-02-05T10:53:49.368Z,7.50
2023-02-05T10:56:17.934Z,7.97
2023-02-05T10:58:47.682Z,9.50
2023-02-05T11:01:16.410Z,7.10
2023-02-05T11:03:49.162Z,8.33
2023-02-05T11:06:16.677Z,6.93
2023-02-05T11:08:45.137Z,9.73
2023-02-05T11:11:21.698Z,8.93
2023-02-05T11:13:51.292Z,7.97
2023-02-05T11:16:18.694Z,7.77
2023-02-05T11:18:47.534Z,7.40
2023-02-05T11:21:14.910Z,7.67
2023-02-05T11:23:54.857Z,7.43
2023-02-05T11:26:24.491Z,8.63
2023-02-05T11:28:52.282Z,8.00
2023-02-05T11:31:21.100Z,9.23
2023-02-05T11:33:48.518Z,7.23
2023-02-05T11:36:17.342Z,8.23
2023-02-05T11:38:45.814Z,8.47
2023-02-05T11:41:14.812Z,9.07
2023-02-05T11:43:46.930Z,8.33
2023-02-05T11:46:16.887Z,8.40
2023-02-05T11:48:45.778Z,8.13
2023-02-05T11:51:15.083Z,8.87
2023-02-05T11:53:47.760Z,9.27
2023-02-05T11:56:22.288Z,9.03
2023-02-05T11:59:00.543Z,10.83
2023-02-05T12:01:29.885Z,8.53
2023-02-05T12:04:00.762Z,9.53
2023-02-05T12:06:31.614Z,7.00
2023-02-05T12:08:58.963Z,9.20
2023-02-05T12:11:52.548Z,10.37
2023-02-05T12:14:24.834Z,9.37
2023-02-05T12:16:54.255Z,8.77
2023-02-05T12:19:23.010Z,9.83
2023-02-05T12:21:51.549Z,9.80
2023-02-05T12:24:34.054Z,9.40
2023-02-05T12:27:05.756Z,9.27
2023-02-05T12:29:44.820Z,9.23
2023-02-05T12:32:17.427Z,6.47
2023-02-05T12:34:49.767Z,8.73
2023-02-05T12:37:24.257Z,9.47
2023-02-05T12:39:53.550Z,9.23
2023-02-05T12:42:29.815Z,8.57
2023-02-05T12:45:06.227Z,9.83
2023-02-05T12:47:41.755Z,9.50
2023-02-05T12:50:16.073Z,11.13
2023-02-05T12:52:54.042Z,8.90
2023-02-05T12:55:28.380Z,10.80
2023-02-05T12:57:59.690Z,8.47
2023-02-05T13:00:29.855Z,7.10
2023-02-05T13:03:01.816Z,8.57
2023-02-05T13:05:32.951Z,8.40
2023-02-05T13:08:04.082Z,8.17
2023-02-05T13:10:35.131Z,8.50
2023-02-05T13:13:05.390Z,8.13
2023-02-05T13:15:37.629Z,7.37
2023-02-05T13:18:07.358Z,8.30
2023-02-05T13:20:55.962Z,10.43
2023-02-05T13:23:41.294Z,9.50
2023-02-05T13:26:29.269Z,10.43
2023-02-05T13:28:58.577Z,9.47
2023-02-05T13:31:29.902Z,7.60
2023-02-05T13:33:58.272Z,9.40
2023-02-05T13:36:44.009Z,9.03
2023-02-05T13:39:19.451Z,8.37
2023-02-05T13:42:06.633Z,10.80
2023-02-05T13:44:55.310Z,9.67
2023-02-05T13:47:30.545Z,10.00
2023-02-05T13:50:07.266Z,10.53
2023-02-05T13:52:55.505Z,14.50
2023-02-05T13:55:32.964Z,10.23
2023-02-05T13:58:14.812Z,11.87
2023-02-05T14:00:43.320Z,11.37
2023-02-05T14:03:25.279Z,11.50
2023-02-05T14:05:52.807Z,10.70
2023-02-05T14:08:21.637Z,13.00
2023-02-05T14:10:57.153Z,11.93
2023-02-05T14:13:25.729Z,13.03
2023-02-05T14:15:54.181Z,16.67
2023-02-05T14:18:51.782Z,17.07
2023-02-05T14:21:37.963Z,15.87
2023-02-05T14:24:26.194Z,13.93
2023-02-05T14:26:56.204Z,15.30
2023-02-05T14:29:39.342Z,13.40
2023-02-05T14:32:08.887Z,12.73
2023-02-05T14:34:51.214Z,12.13
2023-02-05T14:37:24.717Z,18.30
2023-02-05T14:39:53.454Z,16.07
2023-02-05T14:42:21.642Z,15.43
2023-02-05T14:44:54.456Z,15.40
2023-02-05T14:47:23.598Z,19.27
2023-02-05T14:49:51.142Z,21.37
2023-02-05T14:52:27.902Z,20.43
2023-02-05T14:55:00.267Z,19.37
2023-02-05T14:57:29.146Z,23.10
2023-02-05T14:59:58.152Z,23.00
2023-02-05T15:02:40.961Z,22.30
2023-02-05T15:05:12.387Z,19.07
2023-02-05T15:07:39.881Z,23.43
2023-02-05T15:10:09.096Z,22.00
2023-02-05T15:12:55.471Z,16.87
2023-02-05T15:15:28.103Z,19.83
2023-02-05T15:17:58.005Z,22.30
2023-02-05T15:20:27.612Z,22.43
2023-02-05T15:22:57.251Z,22.17
2023-02-05T15:25:34.471Z,15.13
2023-02-05T15:28:03.098Z,18.33
2023-02-05T15:30:33.686Z,41.13
2023-02-05T15:33:03.092Z,20.87
2023-02-05T15:35:31.803Z,22.77
2023-02-05T15:38:01.384Z,16.83
2023-02-05T15:40:30.406Z,21.73
2023-02-05T15:43:00.970Z,20.17
2023-02-05T15:45:29.517Z,18.10
2023-02-05T15:48:00.249Z,18.30
2023-02-05T15:50:27.759Z,17.10
2023-02-05T15:52:55.116Z,18.77
2023-02-05T15:55:24.629Z,21.90
2023-02-05T15:57:52.401Z,20.27
2023-02-05T16:00:23.436Z,22.43
2023-02-05T16:02:54.274Z,21.73
2023-02-05T16:05:23.141Z,19.60
2023-02-05T16:07:55.624Z,21.33
2023-02-05T16:10:23.833Z,19.67
2023-02-05T16:13:01.344Z,20.17
2023-02-05T16:15:32.153Z,21.37
2023-02-05T16:18:00.079Z,20.70
2023-02-05T16:20:28.926Z,24.17
2023-02-05T16:22:57.824Z,19.57
2023-02-05T16:25:29.784Z,20.63
2023-02-05T16:27:58.789Z,21.90
2023-02-05T16:30:31.147Z,20.53
2023-02-05T16:33:00.783Z,20.37
2023-02-05T16:35:29.877Z,20.40
2023-02-05T16:37:57.876Z,20.87
2023-02-05T16:40:30.899Z,23.20
2023-02-05T16:42:58.367Z,20.33
2023-02-05T16:45:29.013Z,20.13
2023-02-05T16:48:17.511Z,20.20
2023-02-05T16:50:46.171Z,18.87
2023-02-05T16:53:14.584Z,18.93
2023-02-05T16:55:42.943Z,21.13
2023-02-05T16:58:15.461Z,23.87
2023-02-05T17:00:42.831Z,23.37
2023-02-05T17:03:17.409Z,22.50
2023-02-05T17:05:53.238Z,21.83
2023-02-05T17:08:28.538Z,17.57
2023-02-05T17:10:57.187Z,18.43
2023-02-05T17:13:27.273Z,19.80
2023-02-05T17:15:54.915Z,23.17
2023-02-05T17:18:23.796Z,20.83
2023-02-05T17:20:52.637Z,25.63
2023-02-05T17:23:19.965Z,23.67
2023-02-05T17:25:52.308Z,20.60
2023-02-05T17:28:20.938Z,21.80
2023-02-05T17:30:49.149Z,22.43
2023-02-05T17:33:18.149Z,21.47
2023-02-05T17:35:45.501Z,21.60
2023-02-05T17:38:14.210Z,24.00
2023-02-05T17:40:42.091Z,23.77
2023-02-05T17:43:09.540Z,30.50
2023-02-05T17:45:39.410Z,23.50
2023-02-05T17:48:07.212Z,21.53
2023-02-05T17:50:35.851Z,20.20
2023-02-05T17:53:03.775Z,21.33
2023-02-05T17:55:32.477Z,19.53
2023-02-05T17:57:59.884Z,20.60
2023-02-05T18:00:28.231Z,20.03
2023-02-05T18:02:55.629Z,21.87
2023-02-05T18:05:23.287Z,29.80
2023-02-05T18:07:51.694Z,20.33
2023-02-05T18:10:23.122Z,21.57
2023-02-05T18:12:51.928Z,25.40
2023-02-05T18:15:19.424Z,32.80
2023-02-05T18:17:46.901Z,22.00
2023-02-05T18:20:14.886Z,20.50
2023-02-05T18:22:42.225Z,21.43
2023-02-05T18:25:09.893Z,21.07
2023-02-05T18:27:37.280Z,22.00
2023-02-05T18:30:06.893Z,19.03
2023-02-05T18:32:34.205Z,20.97
2023-02-05T18:35:01.522Z,19.20
2023-02-05T18:37:28.976Z,24.33
2023-02-05T18:39:56.297Z,21.20
2023-02-05T18:42:23.636Z,18.97
2023-02-05T18:44:51.023Z,18.17
2023-02-05T18:47:19.722Z,19.10
2023-02-05T18:49:47.068Z,17.40
2023-02-05T18:52:14.838Z,19.03
2023-02-05T18:54:43.115Z,20.60
2023-02-05T18:57:12.301Z,21.30
2023-02-05T18:59:40.077Z,22.23
2023-02-05T19:02:07.871Z,19.17
2023-02-05T19:04:36.572Z,17.73
2023-02-05T19:07:04.059Z,17.80
2023-02-05T19:09:31.521Z,20.07
2023-02-05T19:11:58.876Z,35.60
2023-02-05T19:14:26.642Z,63.47
2023-02-05T19:16:54.066Z,24.73
2023-02-05T19:19:22.183Z,27.37
2023-02-05T19:21:53.487Z,23.47
2023-02-05T19:24:21.471Z,37.17
2023-02-05T19:26:50.742Z,27.97
2023-02-05T19:29:19.995Z,20.83
2023-02-05T19:31:47.509Z,28.67
2023-02-05T19:34:15.141Z,26.17
2023-02-05T19:36:42.770Z,24.27
2023-02-05T19:39:12.385Z,21.83
2023-02-05T19:41:39.949Z,22.70
2023-02-05T19:44:09.068Z,20.40
2023-02-05T19:46:37.865Z,18.17
2023-02-05T19:49:06.514Z,16.80
2023-02-05T19:51:34.293Z,15.83
2023-02-05T19:54:02.959Z,18.63
2023-02-05T19:56:32.442Z,18.20
2023-02-05T19:58:59.833Z,24.70
2023-02-05T20:01:27.879Z,29.50
2023-02-05T20:03:56.874Z,25.07
2023-02-05T20:06:25.045Z,27.27
2023-02-05T20:08:52.690Z,29.63
2023-02-05T20:11:20.388Z,30.43
2023-02-05T20:13:49.147Z,27.60
2023-02-05T20:16:17.108Z,24.13
2023-02-05T20:18:44.894Z,29.53
2023-02-05T20:21:13.277Z,28.63
2023-02-05T20:23:40.921Z,32.10
2023-02-05T20:26:08.830Z,30.80
2023-02-05T20:28:56.830Z,30.30
2023-02-05T20:31:33.866Z,28.00
2023-02-05T20:34:01.424Z,32.87
2023-02-05T20:36:28.741Z,31.77
2023-02-05T20:38:56.630Z,33.40
2023-02-05T20:41:23.968Z,29.47
2023-02-05T20:43:51.313Z,28.33
2023-02-05T20:46:18.739Z,31.37
2023-02-05T20:48:48.399Z,26.67
2023-02-05T20:51:16.668Z,28.27
2023-02-05T20:53:44.403Z,39.60
2023-02-05T20:56:12.946Z,66.43
2023-02-05T20:58:40.347Z,71.17
2023-02-05T21:01:08.184Z,32.07
2023-02-05T21:03:35.579Z,28.67
2023-02-05T21:06:04.609Z,30.10
2023-02-05T21:08:32.368Z,28.67
2023-02-05T21:10:59.750Z,28.10
2023-02-05T21:13:27.103Z,29.70
2023-02-05T21:15:55.012Z,26.80
2023-02-05T21:18:22.804Z,25.13
2023-02-05T21:20:50.316Z,26.93
2023-02-05T21:23:19.009Z,28.97
2023-02-05T21:25:46.442Z,26.60
2023-02-05T21:28:13.916Z,27.27
2023-02-05T21:30:42.876Z,30.60
2023-02-05T21:33:10.262Z,26.37
2023-02-05T21:35:38.273Z,24.90
2023-02-05T21:38:05.593Z,27.20
2023-02-05T21:40:34.716Z,25.30
2023-02-05T21:43:02.221Z,26.67
2023-02-05T21:45:29.557Z,29.07
2023-02-05T21:47:56.953Z,27.63
2023-02-05T21:50:24.284Z,28.23
2023-02-05T21:52:51.599Z,24.77
2023-02-05T21:55:18.981Z,23.57
2023-02-05T21:57:47.644Z,24.17
2023-02-05T22:00:15.313Z,26.00
2023-02-05T22:02:42.637Z,23.87
2023-02-05T22:05:10.090Z,28.10
2023-02-05T22:07:37.424Z,26.50
2023-02-05T22:10:05.063Z,30.80
2023-02-05T22:12:32.455Z,25.90
2023-02-05T22:15:01.123Z,25.10
2023-02-05T22:17:28.430Z,28.23
2023-02-05T22:19:55.761Z,28.90
2023-02-05T22:22:23.085Z,27.67
2023-02-05T22:24:50.649Z,30.83
2023-02-05T22:27:18.013Z,26.67
2023-02-05T22:29:45.403Z,29.47
2023-02-05T22:32:14.121Z,27.70
2023-02-05T22:34:43.485Z,27.53
2023-02-05T22:37:11.265Z,25.80
2023-02-05T22:39:38.607Z,26.50
2023-02-05T22:42:06.017Z,28.57
2023-02-05T22:44:33.658Z,28.97
2023-02-05T22:47:00.966Z,31.23
2023-02-05T22:49:29.649Z,25.30
2023-02-05T22:51:57.000Z,31.80
2023-02-05T22:54:24.338Z,26.87
2023-02-05T22:56:51.694Z,28.97
2023-02-05T22:59:19.024Z,29.80
2023-02-05T23:01:46.386Z,30.93
2023-02-05T23:04:13.707Z,36.67
2023-02-05T23:06:43.467Z,35.07
2023-02-05T23:09:11.687Z,33.27
2023-02-05T23:11:39.322Z,31.87
2023-02-05T23:14:07.141Z,32.23
2023-02-05T23:16:35.951Z,32.60
2023-02-05T23:19:04.632Z,32.07
2023-02-05T23:21:32.584Z,37.30
2023-02-05T23:24:01.584Z,31.50
2023-02-05T23:26:31.081Z,32.10
2023-02-05T23:28:58.660Z,32.90
2023-02-05T23:31:26.821Z,31.80
2023-02-05T23:33:54.280Z,34.17
2023-02-05T23:36:21.705Z,35.40
2023-02-05T23:38:50.199Z,31.80
2023-02-05T23:41:35.328Z,34.47
2023-02-05T23:44:03.965Z,28.53
2023-02-05T23:46:31.609Z,33.43
2023-02-05T23:48:58.982Z,35.63
2023-02-05T23:51:26.578Z,34.87
2023-02-05T23:53:53.966Z,30.07
2023-02-05T23:56:22.628Z,31.93
2023-02-05T23:58:49.975Z,33.07
